Maran Pythia — SVAQ5 — position and weather

sailwx.info

Track history (hours):
 
Tides and Currents Weather Stations Pressure Air Temp Water Temp Dewpoint Dewpoint Depression Visibility Wind Speed Wind Dir Waves Ship Positions

Maran Pythia

Last reported at 2015-Jun-27 16:23 UTC. Time now 2015-Jul-05 12:50 UTC.
Position S 33°53' E 017°58'.

Length 275 m; draft 9.5 m.

Type: Tanker. MMSI: 240893000.

Date/timePositionNaut miles runAvg speedWind from/ knotsBaromVisibWave heightAir tempDewpointWater temp
2015-Jun-27 16:23S 33°53' E 017°58'6212.7
2015-Jun-27 11:31S 34°39' E 018°48'33211.4
2015-Jun-26 06:24S 34°24' E 025°31'306 8.5
2015-Jun-24 18:28S 32°56' E 031°22'8 9.3
2015-Jun-24 17:33S 32°54' E 031°32'1010.5
2015-Jun-24 16:33S 32°50' E 031°43'1010.2
2015-Jun-24 15:33S 32°46' E 031°55'1010.3
2015-Jun-24 14:33S 32°42' E 032°06'1110.5
2015-Jun-24 13:33S 32°38' E 032°18'1110.8
2015-Jun-24 12:33S 32°34' E 032°30'1110.8
2015-Jun-24 11:33S 32°30' E 032°41'1110.6
2015-Jun-24 10:33S 32°26' E 032°53'1010.5
2015-Jun-24 09:33S 32°22' E 033°05'1110.7
2015-Jun-24 08:33S 32°18' E 033°16'1010.4
2015-Jun-24 07:33S 32°14' E 033°28'1010.4
2015-Jun-24 06:33S 32°10' E 033°39'8910.7
2015-Jun-23 22:13S 31°37' E 035°17'  
2015-Jun-18 09:07S 20°28' E 057°03'6 9.6
2015-Jun-18 08:32S 20°25' E 057°08'1010.0
2015-Jun-18 07:33S 20°18' E 057°15'1010.4
2015-Jun-18 06:33S 20°11' E 057°23'3 2.9
2015-Jun-18 05:33S 20°08' E 057°25'4 3.7
2015-Jun-18 04:33S 20°06' E 057°28'8 7.6
2015-Jun-18 03:33S 19°58' E 057°28'9 9.0
2015-Jun-18 02:33S 19°51' E 057°34'9 9.3
2015-Jun-18 01:33S 19°46' E 057°43'9 9.1
2015-Jun-18 00:33S 19°42' E 057°51'10 9.4
2015-Jun-17 23:33S 19°37' E 057°60'  
Track history (hours):
 
Tides and Currents Weather Stations Pressure Air Temp Water Temp Dewpoint Dewpoint Depression Visibility Wind Speed Wind Dir Waves Ship Positions

Maran Pythia

Last reported at 2015-Jun-27 16:23 UTC. Time now 2015-Jul-05 12:50 UTC.
Position S 33°53' E 017°58'.

Length 275 m; draft 9.5 m.

Type: Tanker. MMSI: 240893000.

Date/timePositionNaut miles runAvg speedWind from/ knotsBaromVisibWave heightAir tempDewpointWater temp
2015-Jun-27 16:23S 33°53' E 017°58'6212.7
2015-Jun-27 11:31S 34°39' E 018°48'33211.4
2015-Jun-26 06:24S 34°24' E 025°31'306 8.5
2015-Jun-24 18:28S 32°56' E 031°22'8 9.3
2015-Jun-24 17:33S 32°54' E 031°32'1010.5
2015-Jun-24 16:33S 32°50' E 031°43'1010.2
2015-Jun-24 15:33S 32°46' E 031°55'1010.3
2015-Jun-24 14:33S 32°42' E 032°06'1110.5
2015-Jun-24 13:33S 32°38' E 032°18'1110.8
2015-Jun-24 12:33S 32°34' E 032°30'1110.8
2015-Jun-24 11:33S 32°30' E 032°41'1110.6
2015-Jun-24 10:33S 32°26' E 032°53'1010.5
2015-Jun-24 09:33S 32°22' E 033°05'1110.7
2015-Jun-24 08:33S 32°18' E 033°16'1010.4
2015-Jun-24 07:33S 32°14' E 033°28'1010.4
2015-Jun-24 06:33S 32°10' E 033°39'8910.7
2015-Jun-23 22:13S 31°37' E 035°17'  
2015-Jun-18 09:07S 20°28' E 057°03'6 9.6
2015-Jun-18 08:32S 20°25' E 057°08'1010.0
2015-Jun-18 07:33S 20°18' E 057°15'1010.4
2015-Jun-18 06:33S 20°11' E 057°23'3 2.9
2015-Jun-18 05:33S 20°08' E 057°25'4 3.7
2015-Jun-18 04:33S 20°06' E 057°28'8 7.6
2015-Jun-18 03:33S 19°58' E 057°28'9 9.0
2015-Jun-18 02:33S 19°51' E 057°34'9 9.3
2015-Jun-18 01:33S 19°46' E 057°43'9 9.1
2015-Jun-18 00:33S 19°42' E 057°51'10 9.4
2015-Jun-17 23:33S 19°37' E 057°60'  

Dump ship's entire track history